Time;durP1;ratioP1;P1;durP2;ratioP2;P2;SDS_P1;SDS_P2;PMS_P1;PMS_P2;Temp;Humidity;BMP_temperature;BMP_pressure;BME280_temperature;BME280_humidity;BME280_pressure;Samples;Min_cycle;Max_cycle;Signal;HPM_P1;HPM_P2
2023/06/03 00:02:02;;;;;;;9.52;2.88;;;;;;;11.46;100.00;101354.16;5076441;28;20047;-81
2023/06/03 00:04:29;;;;;;;11.13;2.67;;;;;;;11.45;100.00;101352.50;5099923;28;20084;-81
2023/06/03 00:06:56;;;;;;;6.85;3.17;;;;;;;11.47;100.00;101351.41;5072454;28;20035;-81
2023/06/03 00:09:22;;;;;;;9.27;3.78;;;;;;;11.47;100.00;101342.59;5099097;28;20040;-81
2023/06/03 00:11:48;;;;;;;7.78;3.13;;;;;;;11.45;100.00;101348.03;5057050;28;20046;-81
2023/06/03 00:14:14;;;;;;;7.82;2.90;;;;;;;11.40;100.00;101352.88;5074141;28;20032;-80
2023/06/03 00:16:45;;;;;;;11.13;3.58;;;;;;;11.26;100.00;101360.13;5085458;28;20492;-80
2023/06/03 00:19:14;;;;;;;8.90;2.70;;;;;;;11.15;100.00;101355.72;5074044;28;20043;-80
2023/06/03 00:21:45;;;;;;;8.35;3.08;;;;;;;11.25;100.00;101347.03;5093279;28;20036;-82
2023/06/03 00:24:17;;;;;;;8.68;2.90;;;;;;;11.36;100.00;101352.28;5062767;28;20062;-82
2023/06/03 00:26:42;;;;;;;11.15;3.65;;;;;;;11.34;100.00;101353.41;5086085;28;20039;-82
2023/06/03 00:29:09;;;;;;;11.32;3.88;;;;;;;11.25;100.00;101352.31;5081887;28;20028;-82
2023/06/03 00:31:35;;;;;;;5.68;2.78;;;;;;;11.11;100.00;101358.75;5091771;28;20114;-82
2023/06/03 00:34:01;;;;;;;9.38;3.40;;;;;;;10.96;100.00;101350.28;5058980;28;20584;-80
2023/06/03 00:36:27;;;;;;;9.50;3.25;;;;;;;10.93;100.00;101343.41;5081815;28;20050;-80
2023/06/03 00:38:52;;;;;;;9.35;3.30;;;;;;;10.85;100.00;101349.31;5091261;28;20502;-80
2023/06/03 00:41:19;;;;;;;7.43;3.38;;;;;;;10.79;100.00;101355.09;5090449;28;20028;-80
2023/06/03 00:43:45;;;;;;;7.15;3.53;;;;;;;10.82;100.00;101354.00;5077989;28;20497;-79
2023/06/03 00:46:13;;;;;;;13.57;3.80;;;;;;;10.86;100.00;101364.22;5081478;28;20032;-79
2023/06/03 00:48:39;;;;;;;10.45;3.63;;;;;;;10.82;100.00;101349.56;5075575;28;20527;-79
2023/06/03 00:51:09;;;;;;;8.75;3.53;;;;;;;10.84;100.00;101350.28;5082693;28;20043;-80
2023/06/03 00:53:36;;;;;;;6.78;3.72;;;;;;;10.82;100.00;101354.00;5070843;28;20039;-80
2023/06/03 00:56:02;;;;;;;4.63;3.03;;;;;;;10.79;100.00;101353.31;5092716;28;20029;-80
2023/06/03 00:58:28;;;;;;;10.05;3.50;;;;;;;10.84;100.00;101363.53;5075009;28;20034;-80
2023/06/03 01:00:55;;;;;;;8.43;3.58;;;;;;;10.89;100.00;101358.69;5057386;28;20032;-80
2023/06/03 01:03:21;;;;;;;13.82;3.40;;;;;;;10.90;100.00;101359.53;5076916;28;20020;-80
2023/06/03 01:06:15;;;;;;;9.05;4.20;;;;;;;10.96;100.00;101355.56;5082127;28;20053;-79
2023/06/03 01:09:01;;;;;;;9.15;3.42;;;;;;;10.98;100.00;101358.91;5078967;28;20036;-79
2023/06/03 01:11:32;;;;;;;15.60;4.25;;;;;;;10.94;100.00;101362.78;5072880;28;20036;-80
2023/06/03 01:14:10;;;;;;;10.98;4.18;;;;;;;10.84;100.00;101360.03;5079448;28;20036;-80
2023/06/03 01:16:41;;;;;;;11.15;4.40;;;;;;;10.65;100.00;101358.84;5093287;28;20500;-80
2023/06/03 01:19:36;;;;;;;9.23;4.32;;;;;;;10.65;100.00;101357.03;5080823;28;20059;-80
2023/06/03 01:22:03;;;;;;;10.40;5.15;;;;;;;10.62;100.00;101359.94;5089698;28;20125;-80
2023/06/03 01:24:32;;;;;;;10.10;4.63;;;;;;;10.62;100.00;101359.94;5090632;28;20031;-80
2023/06/03 01:26:58;;;;;;;7.88;3.95;;;;;;;10.57;100.00;101361.25;5088393;28;20027;-80
2023/06/03 01:29:25;;;;;;;9.63;4.45;;;;;;;10.51;100.00;101362.59;5069501;28;20604;-80
2023/06/03 01:31:54;;;;;;;10.88;4.50;;;;;;;10.52;100.00;101364.28;5089406;28;20142;-80
2023/06/03 01:34:20;;;;;;;12.57;4.07;;;;;;;10.54;100.00;101365.81;5063709;28;20035;-80
2023/06/03 01:36:46;;;;;;;9.90;4.00;;;;;;;10.57;100.00;101364.75;5085328;28;20036;-80
2023/06/03 01:39:12;;;;;;;10.13;4.80;;;;;;;10.46;100.00;101370.91;5064769;28;20032;-80
2023/06/03 01:41:42;;;;;;;8.50;5.00;;;;;;;10.26;100.00;101375.88;5089033;28;20100;-80
2023/06/03 01:44:08;;;;;;;7.07;4.28;;;;;;;10.13;100.00;101372.53;5088059;28;20020;-80
2023/06/03 01:46:35;;;;;;;14.15;4.45;;;;;;;10.17;100.00;101373.97;5067453;28;20182;-80
2023/06/03 01:49:02;;;;;;;13.02;4.97;;;;;;;10.18;100.00;101360.63;5085068;28;20046;-80
2023/06/03 01:51:28;;;;;;;10.65;4.40;;;;;;;10.23;100.00;101372.63;5074111;28;20069;-80
2023/06/03 01:53:55;;;;;;;10.32;4.38;;;;;;;10.27;100.00;101380.22;5069862;28;20032;-80
2023/06/03 01:56:22;;;;;;;10.40;4.53;;;;;;;10.34;100.00;101369.16;5064953;28;20059;-80
2023/06/03 01:58:48;;;;;;;9.95;4.50;;;;;;;10.45;100.00;101377.09;5086370;28;20508;-79
2023/06/03 02:01:14;;;;;;;16.23;5.45;;;;;;;10.49;100.00;101367.16;5065779;28;20031;-80
2023/06/03 02:03:40;;;;;;;11.07;5.50;;;;;;;10.56;100.00;101372.81;5088919;28;20028;-80
2023/06/03 02:06:07;;;;;;;12.93;5.05;;;;;;;10.64;100.00;101373.03;5084052;28;20047;-80
2023/06/03 02:08:36;;;;;;;10.32;4.88;;;;;;;10.56;100.00;101370.16;5083255;28;20517;-81
2023/06/03 02:11:02;;;;;;;10.52;5.47;;;;;;;10.42;100.00;101374.69;5072472;28;20482;-80
2023/06/03 02:13:29;;;;;;;10.25;4.72;;;;;;;10.29;100.00;101366.88;5064954;28;21498;-80
2023/06/03 02:15:55;;;;;;;8.50;5.05;;;;;;;10.24;100.00;101377.81;5089310;28;20548;-80
2023/06/03 02:18:21;;;;;;;13.82;5.53;;;;;;;10.13;100.00;101375.19;5071511;28;20055;-80
2023/06/03 02:20:46;;;;;;;12.63;5.57;;;;;;;10.05;100.00;101383.66;5103602;28;20035;-80
2023/06/03 02:23:12;;;;;;;11.18;6.10;;;;;;;9.98;100.00;101379.81;5065248;28;20059;-80
2023/06/03 02:25:38;;;;;;;12.35;6.07;;;;;;;9.96;100.00;101381.72;5070491;28;20416;-80
2023/06/03 02:28:06;;;;;;;13.43;6.38;;;;;;;9.96;100.00;101379.09;5075196;28;20081;-80
2023/06/03 02:30:32;;;;;;;14.20;5.88;;;;;;;9.93;100.00;101388.09;5052754;28;20836;-80
2023/06/03 02:32:57;;;;;;;9.55;5.90;;;;;;;9.83;100.00;101385.31;5077572;28;20042;-80
2023/06/03 02:35:24;;;;;;;10.00;5.85;;;;;;;9.72;100.00;101387.91;5055176;28;20042;-80
2023/06/03 02:37:50;;;;;;;14.57;6.30;;;;;;;9.64;100.00;101381.41;5073815;28;20039;-80
2023/06/03 02:40:17;;;;;;;18.85;6.53;;;;;;;9.57;100.00;101380.22;5083660;28;20038;-80
2023/06/03 02:42:43;;;;;;;14.07;6.25;;;;;;;9.51;100.00;101381.47;5091830;28;20027;-80
2023/06/03 02:45:10;;;;;;;16.48;6.55;;;;;;;9.48;100.00;101379.06;5074675;28;20486;-80
2023/06/03 02:47:36;;;;;;;10.30;5.93;;;;;;;9.51;100.00;101381.47;5064969;28;20142;-80
2023/06/03 02:50:01;;;;;;;11.68;6.13;;;;;;;9.60;100.00;101384.41;5079794;28;20489;-80
2023/06/03 02:52:29;;;;;;;12.07;5.93;;;;;;;9.66;100.00;101384.78;5072292;28;20039;-80
2023/06/03 02:54:55;;;;;;;8.98;6.10;;;;;;;9.70;100.00;101381.91;5047787;28;20024;-80
2023/06/03 02:57:22;;;;;;;12.70;6.70;;;;;;;9.71;100.00;101375.69;5088303;28;20028;-80
2023/06/03 02:59:48;;;;;;;14.25;6.38;;;;;;;9.70;100.00;101380.09;5090554;28;20496;-80
2023/06/03 03:02:19;;;;;;;16.10;6.57;;;;;;;9.70;100.00;101382.75;5073667;28;20066;-80
2023/06/03 03:04:45;;;;;;;16.00;6.65;;;;;;;9.66;100.00;101378.66;5092591;28;20024;-80
2023/06/03 03:07:11;;;;;;;11.05;6.55;;;;;;;9.71;100.00;101381.81;5078624;28;20036;-80
2023/06/03 03:09:38;;;;;;;16.77;7.35;;;;;;;9.70;100.00;101385.38;5102626;28;20024;-79
2023/06/03 03:12:07;;;;;;;11.63;7.20;;;;;;;9.71;100.00;101386.22;5096164;28;20031;-80
2023/06/03 03:14:36;;;;;;;17.77;7.88;;;;;;;9.67;100.00;101380.34;5046521;28;20036;-79
2023/06/03 03:17:02;;;;;;;14.50;7.10;;;;;;;9.65;100.00;101380.44;5066535;28;20081;-80
2023/06/03 03:19:28;;;;;;;20.02;8.18;;;;;;;9.69;100.00;101383.72;5057980;28;20079;-80
2023/06/03 03:21:55;;;;;;;14.13;6.90;;;;;;;9.84;100.00;101379.09;5050710;28;20390;-79
2023/06/03 03:24:24;;;;;;;13.60;7.13;;;;;;;9.95;100.00;101383.53;5067504;28;20438;-80
2023/06/03 03:26:52;;;;;;;13.80;6.32;;;;;;;10.06;100.00;101377.44;5059531;28;20027;-80
2023/06/03 03:29:18;;;;;;;11.63;7.10;;;;;;;10.10;100.00;101376.22;5062324;28;20401;-80
2023/06/03 03:31:45;;;;;;;11.45;6.82;;;;;;;10.20;100.00;101379.00;5051639;28;20032;-80
2023/06/03 03:34:12;;;;;;;15.52;7.53;;;;;;;10.25;100.00;101381.28;5068202;28;21296;-79
2023/06/03 03:36:39;;;;;;;15.55;7.25;;;;;;;10.31;100.00;101378.19;5062734;28;20082;-79
2023/06/03 03:39:10;;;;;;;11.57;7.80;;;;;;;10.35;100.00;101376.97;5078479;28;20512;-80
2023/06/03 03:41:44;;;;;;;14.73;8.18;;;;;;;10.35;100.00;101374.31;5070570;28;20027;-79
2023/06/03 03:44:12;;;;;;;13.48;8.20;;;;;;;10.36;100.00;101368.09;5062707;28;20044;-80
2023/06/03 03:46:58;;;;;;;17.80;8.05;;;;;;;10.38;100.00;101365.34;5101808;28;20115;-79
2023/06/03 03:49:31;;;;;;;12.55;6.40;;;;;;;10.42;100.00;101374.69;5077477;28;20058;-80
2023/06/03 03:52:05;;;;;;;12.35;7.65;;;;;;;10.40;100.00;101368.72;5067987;28;20040;-80
2023/06/03 03:54:35;;;;;;;15.10;7.70;;;;;;;10.40;100.00;101371.34;5078168;28;20035;-80
2023/06/03 03:57:08;;;;;;;13.13;6.78;;;;;;;10.48;100.00;101368.13;5067510;28;20078;-80
2023/06/03 03:59:35;;;;;;;9.95;5.72;;;;;;;10.51;100.00;101374.00;5065575;28;20122;-79
2023/06/03 04:02:01;;;;;;;9.80;6.43;;;;;;;10.52;100.00;101373.06;5071353;28;20032;-79
2023/06/03 04:04:45;;;;;;;11.70;6.68;;;;;;;10.58;100.00;101371.72;5080909;28;20055;-80
2023/06/03 04:07:17;;;;;;;12.98;7.00;;;;;;;10.53;100.00;101368.59;5080485;28;20031;-80
2023/06/03 04:09:45;;;;;;;11.98;7.22;;;;;;;10.45;100.00;101371.81;5053005;28;20043;-79
2023/06/03 04:12:37;;;;;;;12.90;7.20;;;;;;;10.37;100.00;101366.28;5067945;28;20371;-80
2023/06/03 04:15:06;;;;;;;11.80;6.50;;;;;;;10.18;100.00;101368.56;5071101;28;20069;-80
2023/06/03 04:17:37;;;;;;;14.68;7.15;;;;;;;10.12;100.00;101366.41;5069932;28;20600;-80
2023/06/03 04:20:31;;;;;;;9.55;5.80;;;;;;;10.02;100.00;101366.25;5079014;28;20051;-79
2023/06/03 04:23:03;;;;;;;11.13;6.40;;;;;;;9.97;100.00;101368.41;5081323;28;20028;-79
2023/06/03 04:25:31;;;;;;;15.85;7.75;;;;;;;9.87;100.00;101370.94;5081562;28;20060;-80
2023/06/03 04:27:57;;;;;;;10.27;6.88;;;;;;;9.89;100.00;101366.34;5041877;28;20036;-79
2023/06/03 04:30:23;;;;;;;15.85;8.20;;;;;;;9.90;100.00;101375.97;5068226;28;20044;-80
2023/06/03 04:32:49;;;;;;;13.75;7.13;;;;;;;9.94;100.00;101376.56;5062866;28;20470;-80
2023/06/03 04:35:16;;;;;;;12.18;7.35;;;;;;;9.98;100.00;101369.25;5056863;28;20064;-79
2023/06/03 04:37:44;;;;;;;14.00;7.20;;;;;;;10.00;100.00;101373.44;5063920;28;20043;-79
2023/06/03 04:40:14;;;;;;;12.90;7.38;;;;;;;10.06;100.00;101377.44;5086403;28;20201;-80
2023/06/03 04:42:41;;;;;;;13.98;7.25;;;;;;;10.12;100.00;101379.59;5085605;28;20040;-79
2023/06/03 04:45:08;;;;;;;10.05;7.00;;;;;;;10.16;100.00;101375.75;5059505;28;20441;-79
2023/06/03 04:47:41;;;;;;;11.73;6.78;;;;;;;10.15;100.00;101383.81;5077966;28;20042;-79
2023/06/03 04:50:09;;;;;;;12.77;7.00;;;;;;;10.14;100.00;101375.06;5053302;28;20404;-80
2023/06/03 04:52:35;;;;;;;9.30;6.88;;;;;;;10.17;100.00;101374.81;5057285;28;20093;-80
2023/06/03 04:55:02;;;;;;;11.93;7.28;;;;;;;10.18;100.00;101381.78;5068989;28;20401;-79
2023/06/03 04:57:28;;;;;;;13.55;7.22;;;;;;;10.17;100.00;101376.59;5077381;28;20044;-80
2023/06/03 04:59:54;;;;;;;18.10;7.85;;;;;;;10.12;100.00;101378.75;5072896;28;20035;-80
2023/06/03 05:02:23;;;;;;;15.80;7.50;;;;;;;10.03;100.00;101369.75;5059545;28;20039;-79
2023/06/03 05:04:50;;;;;;;13.13;6.60;;;;;;;9.98;100.00;101371.91;5050768;28;20034;-80
2023/06/03 05:07:17;;;;;;;10.13;6.90;;;;;;;9.96;100.00;101372.00;5066301;28;20070;-79
2023/06/03 05:09:44;;;;;;;13.43;6.38;;;;;;;9.96;100.00;101369.38;5070466;28;20027;-80
2023/06/03 05:12:10;;;;;;;10.68;6.05;;;;;;;9.97;100.00;101371.03;5068307;28;20036;-79
2023/06/03 05:14:36;;;;;;;10.55;6.85;;;;;;;9.99;100.00;101370.94;5049456;28;20039;-79
2023/06/03 05:17:02;;;;;;;12.27;6.15;;;;;;;10.01;100.00;101375.16;5085239;28;20032;-79
2023/06/03 05:19:29;;;;;;;13.90;6.35;;;;;;;10.02;100.00;101368.91;5059839;28;20044;-80
2023/06/03 05:21:58;;;;;;;13.73;7.03;;;;;;;10.03;100.00;101372.41;5058127;28;20405;-79
2023/06/03 05:24:25;;;;;;;11.80;6.35;;;;;;;10.05;100.00;101367.81;5040096;28;20123;-80
2023/06/03 05:26:50;;;;;;;10.23;5.68;;;;;;;10.10;100.00;101372.75;5053658;28;20165;-79
2023/06/03 05:29:17;;;;;;;19.13;6.35;;;;;;;10.14;100.00;101368.91;5053357;28;20355;-80
2023/06/03 05:31:42;;;;;;;10.70;5.80;;;;;;;10.17;100.00;101366.03;5052782;28;20029;-79
2023/06/03 05:34:10;;;;;;;10.18;5.57;;;;;;;10.17;100.00;101379.25;5055250;28;20043;-79
2023/06/03 05:36:36;;;;;;;9.43;5.45;;;;;;;10.13;100.00;101378.63;5051441;28;20138;-79
2023/06/03 05:39:02;;;;;;;10.65;5.88;;;;;;;10.13;100.00;101378.63;5071431;28;20038;-80
2023/06/03 05:41:29;;;;;;;10.75;5.15;;;;;;;10.05;100.00;101379.22;5064980;28;20067;-81
2023/06/03 05:43:55;;;;;;;6.32;5.13;;;;;;;9.99;100.00;101382.34;5050598;28;20082;-81
2023/06/03 05:46:21;;;;;;;14.07;5.80;;;;;;;10.04;100.00;101384.63;5052324;28;20420;-79
2023/06/03 05:48:47;;;;;;;8.63;5.07;;;;;;;10.07;100.00;101386.19;5070166;28;20032;-80
2023/06/03 05:51:14;;;;;;;8.80;5.10;;;;;;;10.14;100.00;101382.13;5054897;28;20399;-79
2023/06/03 05:53:43;;;;;;;9.40;5.85;;;;;;;10.24;100.00;101388.38;5061568;28;20029;-79
2023/06/03 05:56:11;;;;;;;10.45;5.63;;;;;;;10.35;100.00;101384.06;5066021;28;20029;-80
2023/06/03 05:58:38;;;;;;;11.73;5.22;;;;;;;10.46;100.00;101385.88;5069551;28;20024;-79
2023/06/03 06:01:04;;;;;;;13.98;4.93;;;;;;;10.50;100.00;101376.75;5056149;28;20727;-80
2023/06/03 06:03:30;;;;;;;7.70;5.10;;;;;;;10.50;100.00;101382.91;5050879;28;20028;-79
2023/06/03 06:05:56;;;;;;;11.00;6.03;;;;;;;10.61;100.00;101381.19;5045794;28;20064;-79
2023/06/03 06:08:22;;;;;;;9.38;5.32;;;;;;;10.73;100.00;101376.75;5068181;28;20079;-79
2023/06/03 06:10:48;;;;;;;9.48;5.22;;;;;;;10.84;100.00;101384.69;5084613;28;20040;-80
2023/06/03 06:13:14;;;;;;;7.13;5.18;;;;;;;10.93;100.00;101377.78;5053008;28;20043;-80
2023/06/03 06:15:58;;;;;;;10.25;5.22;;;;;;;10.95;100.00;101381.16;5070739;28;20162;-80
2023/06/03 06:18:24;;;;;;;11.60;5.20;;;;;;;11.01;100.00;101385.13;5065225;28;20049;-79
2023/06/03 06:20:50;;;;;;;13.23;5.50;;;;;;;11.09;100.00;101376.56;5054365;28;20099;-80
2023/06/03 06:23:16;;;;;;;7.82;5.88;;;;;;;11.19;100.00;101387.22;5070879;28;20527;-80
2023/06/03 06:25:48;;;;;;;18.23;6.28;;;;;;;11.29;100.00;101386.34;5051828;28;20057;-79
2023/06/03 06:28:22;;;;;;;9.82;7.47;;;;;;;11.35;100.00;101382.38;5053312;28;20024;-79
2023/06/03 06:30:56;;;;;;;15.73;6.55;;;;;;;11.47;100.00;101382.31;5072081;28;20032;-80
2023/06/03 06:33:22;;;;;;;13.10;7.72;;;;;;;11.58;100.00;101392.03;5065855;28;20066;-79
2023/06/03 06:35:48;;;;;;;15.45;6.70;;;;;;;11.70;100.00;101387.50;5054890;28;20064;-79
2023/06/03 06:38:14;;;;;;;15.35;7.25;;;;;;;11.85;100.00;101386.22;5047424;28;20039;-80
2023/06/03 06:40:42;;;;;;;12.40;6.82;;;;;;;11.96;100.00;101395.09;5056198;28;20028;-80
2023/06/03 06:43:16;;;;;;;10.93;6.43;;;;;;;11.87;100.00;101386.09;5035754;28;20494;-80
2023/06/03 06:45:50;;;;;;;13.45;6.63;;;;;;;11.74;100.00;101387.13;5070622;28;20035;-80
2023/06/03 06:48:16;;;;;;;12.20;6.97;;;;;;;11.72;100.00;101390.88;5053001;28;20032;-80
2023/06/03 06:50:53;;;;;;;14.15;6.68;;;;;;;11.86;100.00;101393.22;5055528;28;20032;-80
2023/06/03 06:53:25;;;;;;;13.98;6.15;;;;;;;11.93;100.00;101390.03;5058565;28;20482;-80
2023/06/03 06:56:04;;;;;;;14.60;6.80;;;;;;;12.02;100.00;101389.25;5036058;28;20066;-81
2023/06/03 06:58:41;;;;;;;12.93;5.95;;;;;;;12.10;100.00;101389.50;5066731;28;20474;-80
2023/06/03 07:01:07;;;;;;;10.13;5.97;;;;;;;12.04;100.00;101390.81;5084751;28;20411;-79
2023/06/03 07:03:37;;;;;;;11.40;6.53;;;;;;;12.09;100.00;101386.97;5042410;28;20036;-80
2023/06/03 07:06:04;;;;;;;14.23;6.13;;;;;;;12.22;100.00;101392.03;5062297;28;20028;-80
2023/06/03 07:08:32;;;;;;;17.70;6.32;;;;;;;12.30;100.00;101391.38;5056962;28;20346;-79
2023/06/03 07:11:03;;;;;;;13.32;5.85;;;;;;;12.53;100.00;101384.91;5039442;28;20039;-80
2023/06/03 07:13:31;;;;;;;13.75;6.15;;;;;;;12.67;100.00;101382.88;5047725;28;20425;-80
2023/06/03 07:16:00;;;;;;;16.58;5.72;;;;;;;12.82;100.00;101383.31;5071232;28;20172;-81
2023/06/03 07:18:27;;;;;;;15.38;5.80;;;;;;;13.13;100.00;101377.09;5052013;28;20093;-80
2023/06/03 07:20:53;;;;;;;12.05;5.57;;;;;;;13.47;100.00;101378.50;5068012;28;20085;-80
2023/06/03 07:23:22;;;;;;;11.43;5.60;;;;;;;13.84;100.00;101384.94;5033604;28;20422;-80
2023/06/03 07:25:50;;;;;;;11.57;5.05;;;;;;;14.23;100.00;101390.16;5086424;28;20046;-79
2023/06/03 07:28:27;;;;;;;10.73;5.65;;;;;;;14.62;100.00;101378.50;5031896;28;20403;-81
2023/06/03 07:30:53;;;;;;;13.68;5.32;;;;;;;14.83;100.00;101374.78;5076396;28;20106;-80
2023/06/03 07:33:29;;;;;;;10.32;4.57;;;;;;;15.20;100.00;101378.31;5062480;28;20024;-80
2023/06/03 07:35:58;;;;;;;10.48;4.78;;;;;;;15.47;100.00;101373.03;5053305;28;20032;-81
2023/06/03 07:38:39;;;;;;;13.50;5.00;;;;;;;15.60;100.00;101375.31;5060637;28;20119;-80
2023/06/03 07:41:14;;;;;;;10.82;4.75;;;;;;;15.54;100.00;101381.25;5088550;28;20056;-81
2023/06/03 07:43:44;;;;;;;11.63;5.43;;;;;;;15.74;100.00;101382.75;5056904;28;20032;-81
2023/06/03 07:46:10;;;;;;;9.70;4.10;;;;;;;15.91;100.00;101379.38;5088482;28;20036;-81
2023/06/03 07:48:37;;;;;;;10.38;4.18;;;;;;;16.07;100.00;101390.16;5085238;28;20031;-81
2023/06/03 07:51:04;;;;;;;11.50;4.50;;;;;;;16.18;100.00;101390.91;5088973;28;20031;-81
2023/06/03 07:53:35;;;;;;;10.65;4.63;;;;;;;16.23;100.00;101394.75;5083016;28;20120;-78
2023/06/03 07:56:09;;;;;;;10.35;4.10;;;;;;;16.32;100.00;101392.97;5035714;28;20040;-80
2023/06/03 07:58:37;;;;;;;15.68;3.65;;;;;;;16.23;100.00;101389.41;5066444;28;20028;-80
2023/06/03 08:01:04;;;;;;;9.85;4.00;;;;;;;16.28;100.00;101388.94;5068885;28;20038;-80
2023/06/03 08:03:30;;;;;;;9.90;3.63;;;;;;;16.27;100.00;101384.59;5051447;28;20028;-80
2023/06/03 08:05:56;;;;;;;8.90;3.50;;;;;;;16.30;100.00;101388.78;5065709;28;20058;-80
2023/06/03 08:08:30;;;;;;;14.35;3.97;;;;;;;16.39;100.00;101387.00;5041189;28;20068;-80
2023/06/03 08:10:56;;;;;;;8.75;3.63;;;;;;;16.40;100.00;101386.00;5056962;28;20040;-80
2023/06/03 08:13:22;;;;;;;7.57;3.08;;;;;;;16.26;100.00;101388.25;5074230;28;20071;-80
2023/06/03 08:15:48;;;;;;;14.70;3.17;;;;;;;16.26;100.00;101390.09;5075108;28;20047;-80
2023/06/03 08:18:43;;;;;;;14.73;3.70;;;;;;;16.29;100.00;101382.63;5072378;28;20496;-81
2023/06/03 08:21:10;;;;;;;6.78;3.45;;;;;;;16.27;100.00;101381.94;5060411;28;20032;-80
2023/06/03 08:23:37;;;;;;;6.40;2.05;;;;;;;16.31;100.00;101377.13;5041045;28;20040;-80
2023/06/03 08:26:03;;;;;;;9.63;2.55;;;;;;;16.30;100.00;101375.44;5041053;28;20103;-79
2023/06/03 08:28:28;;;;;;;10.25;3.35;;;;;;;16.35;100.00;101371.31;5086066;28;20071;-79
2023/06/03 08:30:55;;;;;;;7.32;2.47;;;;;;;16.41;100.00;101374.31;5055639;28;20063;-81
2023/06/03 08:33:21;;;;;;;12.65;3.00;;;;;;;16.39;100.00;101373.66;5033823;28;20032;-81
2023/06/03 08:35:48;;;;;;;10.13;2.80;;;;;;;16.34;100.00;101380.28;5070423;28;20027;-81
2023/06/03 08:38:17;;;;;;;7.38;2.97;;;;;;;16.45;100.00;101376.50;5046693;28;20043;-81
2023/06/03 08:40:50;;;;;;;5.07;2.75;;;;;;;16.57;100.00;101371.72;5047741;28;20388;-81
2023/06/03 08:43:17;;;;;;;7.25;3.33;;;;;;;16.66;100.00;101379.78;5069371;28;20051;-81
2023/06/03 08:45:49;;;;;;;7.65;2.97;;;;;;;16.73;100.00;101378.13;5065292;28;20490;-81
2023/06/03 08:48:46;;;;;;;7.53;3.10;;;;;;;16.72;100.00;101374.59;5056593;28;20040;-80
2023/06/03 08:51:15;;;;;;;9.52;2.45;;;;;;;16.81;100.00;101374.63;5070255;28;20077;-81
2023/06/03 08:53:52;;;;;;;6.18;2.67;;;;;;;16.92;100.00;101378.81;5052650;28;20056;-81
2023/06/03 08:56:22;;;;;;;9.35;2.75;;;;;;;16.95;100.00;101366.00;5070210;28;20032;-81
2023/06/03 08:58:56;;;;;;;11.10;2.92;;;;;;;17.09;100.00;101371.69;5074128;28;20032;-81
2023/06/03 09:01:28;;;;;;;6.90;2.40;;;;;;;17.17;100.00;101374.38;5063781;28;20043;-81
2023/06/03 09:03:55;;;;;;;6.70;2.47;;;;;;;17.20;100.00;101370.56;5062461;28;20020;-81
2023/06/03 09:06:21;;;;;;;10.30;3.03;;;;;;;17.31;100.00;101366.75;5063685;28;20039;-81
2023/06/03 09:08:51;;;;;;;8.38;2.70;;;;;;;17.42;100.00;101365.56;5048977;28;20051;-80
2023/06/03 09:11:17;;;;;;;9.50;2.65;;;;;;;17.54;100.00;101372.22;5081915;28;20033;-81
2023/06/03 09:13:44;;;;;;;13.88;2.85;;;;;;;17.60;100.00;101371.56;5045984;28;20047;-81
2023/06/03 09:16:11;;;;;;;10.57;4.43;;;;;;;17.58;100.00;101368.22;5061877;28;20032;-81
2023/06/03 09:18:37;;;;;;;17.13;3.08;;;;;;;17.55;100.00;101368.56;5090770;28;20040;-81
2023/06/03 09:21:03;;;;;;;12.95;3.15;;;;;;;17.63;100.00;101367.72;5083039;28;20034;-83
2023/06/03 09:23:30;;;;;;;16.98;4.05;;;;;;;17.71;100.00;101361.53;5080477;28;20482;-83
2023/06/03 09:25:56;;;;;;;17.60;3.47;;;;;;;17.73;100.00;101362.19;5084340;28;20118;-83
2023/06/03 09:28:22;;;;;;;23.60;3.67;;;;;;;17.79;100.00;101358.84;5070257;28;20405;-84
2023/06/03 09:30:48;;;;;;;13.75;3.20;;;;;;;17.85;100.00;101360.81;5105796;28;20028;-84
2023/06/03 09:33:15;;;;;;;10.15;2.53;;;;;;;17.92;100.00;101358.31;5063419;28;20035;-83
2023/06/03 09:35:41;;;;;;;13.25;3.42;;;;;;;18.00;100.00;101356.63;5081086;28;20051;-82
2023/06/03 09:38:06;;;;;;;9.68;2.65;;;;;;;18.07;100.00;101358.44;5088324;28;20027;-83
2023/06/03 09:40:34;;;;;;;6.25;2.58;;;;;;;18.14;100.00;101357.78;5082018;28;20394;-79
2023/06/03 09:43:00;;;;;;;12.57;3.05;;;;;;;18.16;100.00;101359.28;5070118;28;20094;-80
2023/06/03 09:45:31;;;;;;;7.72;2.35;;;;;;;18.23;100.00;101362.09;5055000;28;20063;-81
2023/06/03 09:47:58;;;;;;;7.25;2.92;;;;;;;18.23;100.00;101360.25;5069866;28;20093;-81
2023/06/03 09:50:27;;;;;;;6.20;2.70;;;;;;;18.30;100.00;101362.25;5082967;28;20032;-81
2023/06/03 09:52:53;;;;;;;8.82;2.80;;;;;;;18.35;100.00;101350.00;5070205;28;20176;-81
2023/06/03 09:55:22;;;;;;;9.70;3.05;;;;;;;18.43;100.00;101353.66;5035225;28;20863;-81
2023/06/03 09:58:09;;;;;;;4.88;2.00;;;;;;;18.62;100.00;101357.75;5054311;28;20134;-82
2023/06/03 10:00:49;;;;;;;7.18;2.67;;;;;;;18.62;100.00;101351.56;5068552;28;20036;-80
2023/06/03 10:03:18;;;;;;;10.55;3.20;;;;;;;18.62;100.00;101362.28;5078097;28;20103;-80
2023/06/03 10:05:44;;;;;;;9.55;3.10;;;;;;;18.66;100.00;101347.53;5065617;28;20030;-81
2023/06/03 10:08:10;;;;;;;10.32;3.05;;;;;;;18.81;100.00;101345.75;5084548;28;20023;-80
2023/06/03 10:10:57;;;;;;;7.97;2.67;;;;;;;18.90;100.00;101351.06;5077083;28;20512;-81
2023/06/03 10:13:23;;;;;;;9.20;2.30;;;;;;;18.91;100.00;101350.03;5097543;28;20180;-81
2023/06/03 10:15:51;;;;;;;8.68;2.65;;;;;;;18.95;100.00;101346.81;5087530;28;20036;-80
2023/06/03 10:18:17;;;;;;;10.50;2.75;;;;;;;19.04;100.00;101344.94;5066999;28;20055;-80
2023/06/03 10:20:43;;;;;;;12.13;3.53;;;;;;;19.14;100.00;101333.19;5075246;28;20031;-82
2023/06/03 10:23:10;;;;;;;8.10;2.90;;;;;;;19.13;100.00;101343.06;5097029;28;20039;-81
2023/06/03 10:25:45;;;;;;;5.65;2.60;;;;;;;19.21;100.00;101343.00;5088790;28;20051;-82
2023/06/03 10:28:12;;;;;;;9.68;2.63;;;;;;;19.29;100.00;101341.25;5072628;28;20031;-82
2023/06/03 10:30:42;;;;;;;6.65;2.58;;;;;;;19.34;99.06;101345.06;5077232;28;20485;-80
2023/06/03 10:33:08;;;;;;;5.43;2.33;;;;;;;19.38;97.75;101345.56;5071382;28;20043;-81
2023/06/03 10:35:38;;;;;;;7.45;2.63;;;;;;;19.46;94.67;101336.59;5073350;28;20039;-81
2023/06/03 10:38:08;;;;;;;10.20;2.47;;;;;;;19.57;92.26;101338.81;5085434;28;20031;-82
2023/06/03 10:40:34;;;;;;;4.90;2.10;;;;;;;19.58;91.02;101339.66;5088073;28;20507;-82
2023/06/03 10:43:02;;;;;;;4.85;2.17;;;;;;;19.66;89.81;101336.06;5083710;28;20464;-82
2023/06/03 10:45:30;;;;;;;10.10;1.95;;;;;;;19.76;87.91;101331.28;5071681;28;20036;-81
2023/06/03 10:48:11;;;;;;;9.35;2.35;;;;;;;19.86;85.00;101338.22;5069684;28;20039;-82
2023/06/03 10:51:10;;;;;;;7.03;2.25;;;;;;;19.90;81.03;101339.50;5064365;28;20053;-81
2023/06/03 10:54:02;;;;;;;7.47;2.17;;;;;;;19.92;77.33;101345.53;5059139;28;20036;-81
2023/06/03 10:56:35;;;;;;;7.13;2.25;;;;;;;19.98;80.45;101334.06;5075987;28;20405;-82
2023/06/03 10:59:09;;;;;;;4.93;1.92;;;;;;;20.10;78.90;101334.44;5078157;28;20456;-82
2023/06/03 11:01:58;;;;;;;9.60;2.50;;;;;;;20.13;73.01;101336.75;5078790;28;20087;-81
2023/06/03 11:04:28;;;;;;;9.55;2.28;;;;;;;20.20;75.41;101335.00;5057251;28;20070;-82
2023/06/03 11:06:55;;;;;;;8.90;2.55;;;;;;;20.26;74.05;101332.59;5062809;28;20043;-82
2023/06/03 11:09:37;;;;;;;6.97;2.17;;;;;;;20.29;74.47;101333.03;5077707;28;20033;-81
2023/06/03 11:12:14;;;;;;;12.57;2.53;;;;;;;20.37;72.76;101333.97;5078477;28;20035;-81
2023/06/03 11:14:48;;;;;;;5.47;2.20;;;;;;;20.37;74.57;101323.22;5063315;28;20032;-82
2023/06/03 11:17:18;;;;;;;11.35;2.45;;;;;;;20.55;71.31;101325.47;5065137;28;20039;-81
2023/06/03 11:19:44;;;;;;;7.70;2.13;;;;;;;20.54;69.09;101319.28;5073044;28;20067;-81
2023/06/03 11:22:12;;;;;;;12.80;2.88;;;;;;;20.68;68.26;101322.09;5050821;28;20032;-81
2023/06/03 11:24:38;;;;;;;5.38;1.73;;;;;;;20.61;66.54;101327.41;5079066;28;20077;-81